Time;durP1;ratioP1;P1;durP2;ratioP2;P2;SDS_P1;SDS_P2;PMS_P1;PMS_P2;Temp;Humidity;BMP_temperature;BMP_pressure;BME280_temperature;BME280_humidity;BME280_pressure;Samples;Min_cycle;Max_cycle;Signal;HPM_P1;HPM_P2
2022/05/18 00:00:32;;;;;;;12.70;6.58;;;;;;;9.23;62.79;99266.66;1639898;86;26532;-57
2022/05/18 00:03:07;;;;;;;10.25;5.30;;;;;;;9.24;62.82;99265.58;1640182;87;25643;-57
2022/05/18 00:05:36;;;;;;;6.45;3.85;;;;;;;9.23;62.80;99266.12;1640279;86;26721;-59
2022/05/18 00:08:02;;;;;;;7.35;4.15;;;;;;;9.21;62.72;99265.58;1640008;87;25645;-56
2022/05/18 00:10:29;;;;;;;4.85;2.77;;;;;;;9.14;62.96;99271.41;1640066;87;25522;-56
2022/05/18 00:12:56;;;;;;;9.78;2.60;;;;;;;9.06;62.79;99268.50;1640306;87;25752;-56
2022/05/18 00:15:25;;;;;;;4.60;2.45;;;;;;;8.97;62.52;99267.74;1640266;86;25704;-56
2022/05/18 00:17:51;;;;;;;4.22;2.25;;;;;;;8.88;62.79;99265.36;1640205;86;27394;-56
2022/05/18 00:20:18;;;;;;;4.22;2.20;;;;;;;8.79;62.90;99270.64;1640048;87;25920;-57
2022/05/18 00:22:52;;;;;;;4.40;2.40;;;;;;;8.70;62.87;99273.72;1640182;86;25669;-56
2022/05/18 00:25:22;;;;;;;4.15;2.25;;;;;;;8.61;63.21;99274.31;1640239;87;25848;-56
2022/05/18 00:27:49;;;;;;;4.60;2.20;;;;;;;8.55;63.26;99272.73;1640342;86;25709;-55
2022/05/18 00:30:18;;;;;;;8.73;3.52;;;;;;;8.47;63.67;99282.88;1640208;87;27474;-55
2022/05/18 00:32:45;;;;;;;6.55;3.58;;;;;;;8.47;63.82;99286.44;1640255;87;25643;-56
2022/05/18 00:35:13;;;;;;;6.40;3.50;;;;;;;8.44;63.87;99284.81;1640325;87;25740;-57
2022/05/18 00:37:40;;;;;;;6.75;3.75;;;;;;;8.40;64.06;99295.48;1640185;86;25770;-54
2022/05/18 00:40:11;;;;;;;7.83;4.15;;;;;;;8.39;64.37;99291.13;1640325;87;25720;-55
2022/05/18 00:42:38;;;;;;;9.98;5.60;;;;;;;8.34;64.52;99293.88;1640371;86;27792;-57
2022/05/18 00:45:07;;;;;;;8.15;4.67;;;;;;;8.27;64.77;99296.38;1640272;86;25538;-56
2022/05/18 00:47:33;;;;;;;10.05;5.60;;;;;;;8.25;64.94;99299.13;1640354;86;25707;-56
2022/05/18 00:50:04;;;;;;;6.42;3.75;;;;;;;8.25;64.90;99301.31;1640177;86;25755;-57
2022/05/18 00:52:48;;;;;;;5.55;3.37;;;;;;;8.26;64.69;99308.41;1639440;87;25746;-56
2022/05/18 00:55:19;;;;;;;4.50;2.80;;;;;;;8.26;64.60;99308.41;1640249;86;28323;-56
2022/05/18 00:58:09;;;;;;;6.45;3.00;;;;;;;8.24;64.87;99311.98;1640655;86;25466;-55
2022/05/18 01:00:38;;;;;;;8.75;3.80;;;;;;;8.18;65.08;99311.73;1639730;86;25804;-55
2022/05/18 01:03:12;;;;;;;7.22;3.83;;;;;;;8.10;65.09;99315.87;1639329;87;25975;-56
2022/05/18 01:05:41;;;;;;;7.47;3.40;;;;;;;8.07;65.24;99321.06;1638941;87;25548;-56
2022/05/18 01:08:13;;;;;;;12.00;3.65;;;;;;;7.98;65.52;99319.48;1639223;87;28330;-57
2022/05/18 01:10:38;;;;;;;6.60;3.05;;;;;;;7.91;65.64;99334.77;1639234;87;25786;-54
2022/05/18 01:13:06;;;;;;;6.72;3.35;;;;;;;7.86;65.60;99329.36;1639391;87;25757;-55
2022/05/18 01:15:33;;;;;;;5.03;2.47;;;;;;;7.86;65.76;99333.45;1639211;87;25727;-60
2022/05/18 01:18:01;;;;;;;6.05;3.05;;;;;;;7.84;64.52;99336.45;1639209;87;25568;-58
2022/05/18 01:20:35;;;;;;;6.35;2.20;;;;;;;7.77;64.26;99342.73;1639362;87;26922;-59
2022/05/18 01:23:43;;;;;;;4.47;2.08;;;;;;;7.69;63.50;99341.96;1639201;87;25958;-60
2022/05/18 01:26:30;;;;;;;4.85;2.60;;;;;;;7.64;63.29;99338.70;1639074;87;25529;-60
2022/05/18 01:29:01;;;;;;;4.37;2.60;;;;;;;7.58;63.42;99344.72;1639057;87;25672;-60
2022/05/18 01:31:59;;;;;;;5.65;2.55;;;;;;;7.52;63.15;99345.83;1639366;87;32226;-59
2022/05/18 01:34:29;;;;;;;3.52;2.12;;;;;;;7.47;63.35;99352.11;1639024;87;26682;-60
2022/05/18 01:36:56;;;;;;;4.78;2.42;;;;;;;7.40;62.84;99356.47;1609682;87;25515;-60
2022/05/18 01:39:46;;;;;;;5.47;2.00;;;;;;;7.37;62.96;99354.86;1640301;86;25712;-60
2022/05/18 01:42:30;;;;;;;6.10;1.97;;;;;;;7.34;62.82;99356.20;1640069;87;26575;-59
2022/05/18 01:44:56;;;;;;;7.05;2.40;;;;;;;7.31;62.45;99366.30;1640003;86;25736;-59
2022/05/18 01:47:22;;;;;;;9.68;2.33;;;;;;;7.28;63.30;99375.84;1640467;86;27376;-58
2022/05/18 01:49:51;;;;;;;7.90;2.20;;;;;;;7.28;63.02;99372.30;1640075;86;25920;-57
2022/05/18 01:52:17;;;;;;;3.52;2.00;;;;;;;7.25;62.94;99375.03;1640211;86;25501;-60
2022/05/18 01:54:47;;;;;;;3.58;1.60;;;;;;;7.23;62.96;99378.56;1640276;86;25706;-59
2022/05/18 01:57:14;;;;;;;4.60;1.98;;;;;;;7.22;63.10;99382.39;1640219;86;25648;-60
2022/05/18 01:59:41;;;;;;;4.72;2.30;;;;;;;7.19;63.09;99378.05;1640169;86;27427;-60
2022/05/18 02:02:10;;;;;;;4.12;2.22;;;;;;;7.13;63.05;99378.05;1639844;87;25673;-60
2022/05/18 02:04:37;;;;;;;3.52;2.12;;;;;;;7.10;64.01;99386.77;1639976;86;25465;-61
2022/05/18 02:07:04;;;;;;;7.60;2.12;;;;;;;7.02;63.86;99397.66;1640179;86;25736;-60
2022/05/18 02:09:31;;;;;;;5.15;2.37;;;;;;;6.97;63.75;99396.28;1640205;86;25757;-60
2022/05/18 02:11:58;;;;;;;5.05;2.80;;;;;;;6.98;63.59;99398.47;1640214;86;27003;-59
2022/05/18 02:14:26;;;;;;;3.90;1.77;;;;;;;6.96;62.97;99393.83;1640243;86;25624;-59
2022/05/18 02:16:53;;;;;;;6.55;2.15;;;;;;;6.99;62.51;99397.38;1640390;86;25716;-59
2022/05/18 02:19:20;;;;;;;2.37;1.47;;;;;;;7.02;62.67;99400.92;1640227;86;25754;-59
2022/05/18 02:21:46;;;;;;;2.70;1.77;;;;;;;7.02;61.98;99402.28;1640272;87;25652;-59
2022/05/18 02:24:13;;;;;;;5.90;1.80;;;;;;;7.01;61.44;99404.21;1640279;86;27632;-61
2022/05/18 02:26:40;;;;;;;2.30;1.10;;;;;;;7.01;61.07;99415.64;1639948;86;25632;-61
2022/05/18 02:29:06;;;;;;;6.50;1.85;;;;;;;7.03;60.78;99417.00;1626319;88;25640;-57
2022/05/18 02:31:33;;;;;;;2.20;1.37;;;;;;;6.98;60.78;99412.09;1626608;87;25837;-54
2022/05/18 02:33:59;;;;;;;3.55;2.20;;;;;;;6.95;60.67;99417.55;1626768;88;25682;-54
2022/05/18 02:36:26;;;;;;;5.97;1.90;;;;;;;6.91;61.14;99426.00;1626792;87;27506;-59
2022/05/18 02:38:52;;;;;;;2.83;2.00;;;;;;;6.90;60.97;99427.90;1626403;87;25693;-58
2022/05/18 02:41:19;;;;;;;5.78;2.22;;;;;;;6.87;61.38;99436.61;1626638;88;25546;-58
2022/05/18 02:43:45;;;;;;;5.28;2.17;;;;;;;6.84;61.75;99439.05;1626673;88;25841;-59
2022/05/18 02:46:20;;;;;;;4.55;2.40;;;;;;;6.78;62.33;99440.42;1626856;87;25482;-58
2022/05/18 02:48:47;;;;;;;4.25;2.10;;;;;;;6.74;62.36;99443.38;1626511;87;27476;-57
2022/05/18 02:51:16;;;;;;;6.45;2.33;;;;;;;6.67;62.75;99451.56;1626740;88;25501;-57
2022/05/18 02:53:42;;;;;;;5.95;2.40;;;;;;;6.59;63.06;99460.50;1626667;88;25549;-57
2022/05/18 02:56:13;;;;;;;5.92;2.90;;;;;;;6.54;63.01;99463.23;1626342;88;25748;-56
2022/05/18 02:58:48;;;;;;;5.05;1.72;;;;;;;6.50;63.02;99461.56;1626808;88;25474;-55
2022/05/18 03:01:23;;;;;;;5.15;2.22;;;;;;;6.49;62.85;99464.55;1626676;88;27070;-57
2022/05/18 03:03:50;;;;;;;5.47;2.37;;;;;;;6.47;63.01;99469.44;1626146;86;25967;-57
2022/05/18 03:06:19;;;;;;;4.53;1.85;;;;;;;6.44;62.93;99478.14;1626711;88;25624;-58
2022/05/18 03:08:47;;;;;;;4.22;2.00;;;;;;;6.40;62.83;99480.03;1626674;88;25806;-57
2022/05/18 03:11:14;;;;;;;8.68;2.08;;;;;;;6.39;62.87;99488.50;1626518;87;25768;-57
2022/05/18 03:13:41;;;;;;;2.62;1.22;;;;;;;6.38;62.16;99491.75;1626784;87;27436;-56
2022/05/18 03:16:08;;;;;;;4.00;1.95;;;;;;;6.38;62.42;99497.19;1626306;88;25760;-56
2022/05/18 03:18:35;;;;;;;7.37;1.72;;;;;;;6.38;62.31;99508.09;1626633;88;25530;-56
2022/05/18 03:23:47;;;;;;;5.15;1.50;;;;;;;6.38;61.54;99511.34;1626395;88;25617;-54
2022/05/18 03:26:17;;;;;;;6.15;2.65;;;;;;;6.36;61.34;99515.69;1626835;88;27511;-56
2022/05/18 03:28:47;;;;;;;6.33;1.98;;;;;;;6.36;61.55;99516.25;1649837;86;33077;-55
2022/05/18 03:31:14;;;;;;;3.90;2.20;;;;;;;6.39;61.21;99530.69;1658788;86;25471;-54
2022/05/18 03:33:42;;;;;;;7.20;1.90;;;;;;;6.40;60.85;99525.52;1658509;86;26571;-57
2022/05/18 03:36:12;;;;;;;4.55;1.92;;;;;;;6.42;60.71;99532.06;1658348;86;25736;-57
2022/05/18 03:38:39;;;;;;;4.10;1.80;;;;;;;6.45;61.08;99534.25;1658630;86;27676;-57
2022/05/18 03:41:05;;;;;;;6.40;2.05;;;;;;;6.50;60.68;99535.09;1658521;86;25700;-56
2022/05/18 03:43:31;;;;;;;3.72;1.77;;;;;;;6.58;60.39;99532.41;1658696;86;25555;-57
2022/05/18 03:46:03;;;;;;;5.05;1.75;;;;;;;6.67;60.29;99536.80;1658661;86;25668;-56
2022/05/18 03:48:27;;;;;;;2.95;1.37;;;;;;;6.81;60.20;99543.94;1657362;86;25651;-56
2022/05/18 03:50:57;;;;;;;3.83;1.60;;;;;;;6.92;59.30;99542.08;1658585;86;27453;-56
2022/05/18 03:53:24;;;;;;;1.92;1.27;;;;;;;6.98;58.52;99535.56;1658446;86;26121;-55
2022/05/18 03:55:51;;;;;;;6.42;1.85;;;;;;;7.06;58.54;99544.30;1658623;86;25433;-57
2022/05/18 03:58:18;;;;;;;4.10;2.05;;;;;;;7.16;58.48;99549.77;1658654;86;26577;-59
2022/05/18 04:00:47;;;;;;;6.45;1.60;;;;;;;7.26;58.72;99554.44;1658553;86;25640;-60
2022/05/18 04:03:16;;;;;;;4.22;2.20;;;;;;;7.39;58.93;99555.81;1658749;86;27521;-57
2022/05/18 04:05:43;;;;;;;2.55;1.57;;;;;;;7.58;57.56;99559.39;1658878;85;25783;-60
2022/05/18 04:08:11;;;;;;;3.83;1.87;;;;;;;7.72;56.53;99567.33;1658536;85;25629;-60
2022/05/18 04:10:39;;;;;;;3.80;1.92;;;;;;;7.80;56.63;99569.23;1658790;86;25761;-61
2022/05/18 04:13:10;;;;;;;3.52;1.47;;;;;;;7.92;56.41;99568.41;1658751;86;25517;-61
2022/05/18 04:15:36;;;;;;;2.30;1.02;;;;;;;8.01;55.70;99572.20;1658423;86;27563;-60
2022/05/18 04:18:04;;;;;;;5.95;1.75;;;;;;;8.09;54.25;99571.41;1658365;86;25730;-60
2022/05/18 04:20:30;;;;;;;5.37;1.60;;;;;;;8.21;54.58;99572.48;1658836;86;25546;-61
2022/05/18 04:22:56;;;;;;;2.45;1.35;;;;;;;8.24;53.32;99578.75;1658756;86;26904;-60
2022/05/18 04:25:27;;;;;;;3.80;1.37;;;;;;;8.24;52.90;99573.29;1658840;86;25510;-61
2022/05/18 04:27:55;;;;;;;5.33;1.80;;;;;;;8.27;53.11;99577.64;1654386;86;28202;-60
2022/05/18 04:30:26;;;;;;;7.90;1.98;;;;;;;8.33;53.96;99583.09;1640024;87;25627;-61
2022/05/18 04:32:53;;;;;;;9.58;1.80;;;;;;;8.50;53.96;99583.63;1640477;86;25732;-61
2022/05/18 04:35:23;;;;;;;3.98;1.40;;;;;;;8.61;52.25;99598.66;1640263;87;25813;-59
2022/05/18 04:37:51;;;;;;;3.37;0.93;;;;;;;8.59;52.27;99583.08;1640359;86;25508;-60
2022/05/18 04:40:18;;;;;;;6.42;1.60;;;;;;;8.64;51.07;99594.00;1639992;87;27585;-59
2022/05/18 04:42:45;;;;;;;3.80;1.45;;;;;;;8.58;51.69;99598.64;1640020;86;25508;-60
2022/05/18 04:45:15;;;;;;;1.95;1.50;;;;;;;8.66;52.08;99601.36;1640436;86;25541;-60
2022/05/18 04:47:42;;;;;;;3.08;1.82;;;;;;;8.81;52.37;99601.05;1640192;86;26525;-60
2022/05/18 04:50:11;;;;;;;2.98;1.20;;;;;;;8.98;52.17;99599.36;1640258;87;25527;-58
2022/05/18 04:52:38;;;;;;;4.45;1.32;;;;;;;9.17;51.35;99603.63;1640367;86;27396;-60
2022/05/18 04:55:07;;;;;;;2.75;1.60;;;;;;;9.21;51.10;99602.53;1640357;86;25497;-59
2022/05/18 04:57:35;;;;;;;2.77;1.55;;;;;;;9.18;51.17;99603.09;1640337;86;25719;-61
2022/05/18 05:00:05;;;;;;;2.60;1.60;;;;;;;9.22;50.97;99606.36;1639958;87;26779;-59
2022/05/18 05:02:37;;;;;;;4.20;1.47;;;;;;;9.34;50.67;99618.33;1640553;87;25604;-59
2022/05/18 05:05:11;;;;;;;2.08;0.98;;;;;;;9.38;49.51;99618.56;1640128;86;28275;-60
2022/05/18 05:07:38;;;;;;;2.45;1.25;;;;;;;9.40;50.15;99628.14;1640261;86;25717;-60
2022/05/18 05:10:07;;;;;;;3.95;2.10;;;;;;;9.49;49.89;99634.37;1640124;86;25686;-57
2022/05/18 05:12:35;;;;;;;4.22;1.55;;;;;;;9.52;49.90;99626.42;1640297;86;25697;-56
2022/05/18 05:15:03;;;;;;;4.42;1.82;;;;;;;9.64;50.50;99640.30;1617771;87;25521;-57
2022/05/18 05:17:31;;;;;;;2.47;1.22;;;;;;;9.71;48.77;99644.10;1640291;86;27507;-55
2022/05/18 05:19:59;;;;;;;1.47;1.15;;;;;;;9.65;48.79;99638.65;1640089;86;25625;-60
2022/05/18 05:22:27;;;;;;;4.70;1.60;;;;;;;9.73;48.33;99648.18;1640172;87;25635;-56
2022/05/18 05:24:54;;;;;;;2.17;1.20;;;;;;;9.84;49.03;99650.30;1639961;86;25804;-57
2022/05/18 05:27:22;;;;;;;3.92;1.60;;;;;;;9.96;48.13;99645.84;1640166;86;25454;-59
2022/05/18 05:29:49;;;;;;;3.22;1.22;;;;;;;10.03;48.45;99646.35;1640046;86;27447;-57
2022/05/18 05:32:17;;;;;;;5.35;1.70;;;;;;;10.13;47.05;99652.86;1640087;86;25696;-57
2022/05/18 05:34:45;;;;;;;3.80;1.90;;;;;;;10.22;47.84;99653.84;1640070;87;25518;-56
2022/05/18 05:37:12;;;;;;;3.60;1.30;;;;;;;10.29;46.81;99661.75;1639944;86;25743;-58
2022/05/18 05:39:40;;;;;;;5.08;1.45;;;;;;;10.40;46.85;99670.13;1639990;87;25439;-57
2022/05/18 05:42:08;;;;;;;3.22;1.42;;;;;;;10.38;47.00;99667.42;1639963;87;27463;-58
2022/05/18 05:44:36;;;;;;;1.95;1.35;;;;;;;10.40;47.59;99676.19;1640080;86;25741;-57
2022/05/18 05:47:04;;;;;;;5.03;1.72;;;;;;;10.48;47.25;99675.58;1640293;86;25700;-57
2022/05/18 05:49:32;;;;;;;3.37;1.47;;;;;;;10.70;48.36;99674.83;1640242;87;25616;-58
2022/05/18 05:51:59;;;;;;;4.70;1.40;;;;;;;10.84;46.17;99678.53;1639997;86;25657;-58
2022/05/18 05:54:27;;;;;;;1.35;1.07;;;;;;;10.80;45.82;99687.09;1640178;86;27431;-58
2022/05/18 05:56:55;;;;;;;3.22;1.35;;;;;;;10.75;45.38;99696.72;1640057;87;25607;-59
2022/05/18 05:59:23;;;;;;;3.83;1.35;;;;;;;10.83;45.54;99693.91;1639848;87;25748;-58
2022/05/18 06:01:50;;;;;;;3.17;1.42;;;;;;;11.03;45.68;99694.25;1640287;86;26634;-56
2022/05/18 06:04:18;;;;;;;3.77;1.62;;;;;;;11.06;45.89;99701.91;1640409;86;25640;-56
2022/05/18 06:06:46;;;;;;;7.70;1.82;;;;;;;11.19;44.95;99703.69;1639978;86;27484;-57
2022/05/18 06:09:13;;;;;;;3.45;1.37;;;;;;;11.17;44.80;99695.75;1640057;87;25523;-56
2022/05/18 06:11:40;;;;;;;4.00;1.30;;;;;;;11.13;44.43;99708.39;1639910;87;25489;-57
2022/05/18 06:14:08;;;;;;;3.00;1.32;;;;;;;11.12;45.34;99702.66;1640005;86;25739;-56
2022/05/18 06:16:36;;;;;;;4.03;1.90;;;;;;;11.27;45.09;99712.63;1640083;86;25666;-58
2022/05/18 06:19:03;;;;;;;2.87;1.45;;;;;;;11.50;45.84;99711.53;1640100;86;27443;-57
2022/05/18 06:21:30;;;;;;;2.20;1.17;;;;;;;11.72;44.69;99719.23;1640261;87;25912;-57
2022/05/18 06:23:58;;;;;;;6.10;1.40;;;;;;;11.67;44.04;99716.53;1640149;86;25611;-57
2022/05/18 06:26:26;;;;;;;5.87;1.45;;;;;;;11.77;45.17;99722.43;1639985;87;25801;-57
2022/05/18 06:28:54;;;;;;;2.67;1.50;;;;;;;11.98;45.00;99717.49;1646878;86;25694;-57
2022/05/18 06:31:21;;;;;;;2.50;1.70;;;;;;;12.09;44.37;99726.41;1658788;86;27431;-57
2022/05/18 06:33:48;;;;;;;2.77;1.00;;;;;;;12.08;42.95;99726.16;1658545;86;25716;-57
2022/05/18 06:36:16;;;;;;;2.58;1.30;;;;;;;12.19;42.19;99714.45;1658735;85;25640;-57
2022/05/18 06:38:44;;;;;;;2.17;0.93;;;;;;;12.30;42.94;99724.73;1658285;86;25747;-57
2022/05/18 06:41:22;;;;;;;3.10;1.15;;;;;;;12.58;42.16;99734.44;1658371;86;25446;-57
2022/05/18 06:43:53;;;;;;;5.78;1.17;;;;;;;12.70;41.80;99738.66;1658666;86;27504;-57
2022/05/18 06:46:21;;;;;;;1.60;1.07;;;;;;;12.62;41.77;99738.79;1657704;86;25756;-57
2022/05/18 06:48:48;;;;;;;2.00;1.22;;;;;;;12.71;42.03;99744.41;1658588;86;25655;-57
2022/05/18 06:51:20;;;;;;;3.40;1.42;;;;;;;12.80;41.92;99753.61;1658520;86;25957;-60
2022/05/18 06:53:51;;;;;;;2.98;1.22;;;;;;;12.98;41.90;99756.62;1658766;86;25696;-58
2022/05/18 06:56:20;;;;;;;4.17;1.07;;;;;;;13.27;40.94;99750.83;1658258;86;27075;-60
2022/05/18 06:58:50;;;;;;;4.15;1.10;;;;;;;13.32;40.30;99753.24;1657703;86;25461;-58
2022/05/18 07:01:18;;;;;;;2.65;1.17;;;;;;;13.48;40.32;99763.38;1658064;86;25628;-61
2022/05/18 07:03:46;;;;;;;10.63;1.37;;;;;;;13.66;40.54;99769.93;1658347;86;25745;-58
2022/05/18 07:06:16;;;;;;;3.35;1.10;;;;;;;13.88;39.35;99765.63;1658592;86;25458;-61
2022/05/18 07:08:43;;;;;;;2.67;1.42;;;;;;;13.96;39.52;99767.64;1658959;86;27601;-58
2022/05/18 07:11:10;;;;;;;2.67;1.12;;;;;;;14.31;39.98;99772.67;1658463;86;25804;-61
2022/05/18 07:13:38;;;;;;;2.72;1.20;;;;;;;14.60;39.22;99772.81;1658623;86;25527;-61
2022/05/18 07:16:05;;;;;;;6.62;1.37;;;;;;;14.58;39.24;99784.72;1658311;86;25749;-61
2022/05/18 07:18:34;;;;;;;3.45;1.40;;;;;;;14.51;39.06;99789.28;1658455;86;25520;-62
2022/05/18 07:21:05;;;;;;;3.08;1.17;;;;;;;14.86;37.12;99782.42;1658633;86;27351;-62
2022/05/18 07:23:32;;;;;;;;;;;;;;;14.86;37.12;99782.42;1661065;86;25631;-61
2022/05/18 07:25:59;;;;;;;3.15;1.25;;;;;;;14.66;35.84;99796.39;1658584;86;25442;-62
2022/05/18 07:28:27;;;;;;;1.62;0.95;;;;;;;14.71;37.67;99792.66;1657730;86;25753;-61
2022/05/18 07:30:55;;;;;;;1.32;0.90;;;;;;;15.08;35.91;99771.10;1640225;87;25467;-60
2022/05/18 07:33:24;;;;;;;2.05;0.75;;;;;;;15.23;34.61;99778.95;1640084;86;27432;-61
2022/05/18 07:35:53;;;;;;;2.17;1.10;;;;;;;15.33;34.08;99778.43;1640140;86;25895;-60
2022/05/18 07:38:24;;;;;;;2.58;1.55;;;;;;;15.21;33.95;99784.55;1639937;86;25681;-62
2022/05/18 07:40:51;;;;;;;;;;;;;;;15.23;33.65;99790.00;1642709;86;26331;-62
2022/05/18 07:43:18;;;;;;;3.22;1.35;;;;;;;15.28;34.02;99787.66;1640054;87;25733;-61
2022/05/18 07:45:50;;;;;;;2.25;1.27;;;;;;;15.55;35.36;99792.16;1639853;87;27448;-63
2022/05/18 07:48:18;;;;;;;2.50;1.07;;;;;;;15.97;34.57;99795.75;1640205;87;25483;-62
2022/05/18 07:50:45;;;;;;;3.87;1.45;;;;;;;16.49;33.64;99793.57;1639981;86;25687;-61
2022/05/18 07:53:13;;;;;;;1.82;1.10;;;;;;;16.54;33.63;99787.06;1640213;86;26536;-58
2022/05/18 07:55:40;;;;;;;2.72;1.15;;;;;;;16.63;32.35;99797.56;1640255;87;25518;-57
2022/05/18 07:58:10;;;;;;;3.30;1.20;;;;;;;16.72;32.74;99793.39;1640165;86;27882;-58
2022/05/18 08:00:38;;;;;;;2.72;1.07;;;;;;;16.84;33.01;99798.84;1640193;87;35228;-58
2022/05/18 08:03:09;;;;;;;1.60;1.02;;;;;;;16.87;31.24;99797.59;1639854;87;25470;-62
2022/05/18 08:05:37;;;;;;;5.35;1.35;;;;;;;16.89;31.66;99802.25;1640172;86;25920;-57
2022/05/18 08:08:12;;;;;;;3.22;1.45;;;;;;;17.19;30.38;99802.95;1640352;86;25678;-60
2022/05/18 08:16:11;;;;;;;4.60;1.25;;;;;;;18.06;29.22;99799.52;1639894;87;25614;-61
2022/05/18 08:18:38;;;;;;;2.37;1.07;;;;;;;18.42;28.97;99801.48;1639861;87;25835;-58
2022/05/18 08:21:04;;;;;;;3.42;1.00;;;;;;;18.90;29.03;99805.38;1640247;87;25536;-60
2022/05/18 08:23:31;;;;;;;2.83;1.17;;;;;;;19.13;27.35;99799.45;1639859;86;27416;-61
2022/05/18 08:25:58;;;;;;;1.60;1.07;;;;;;;19.37;28.62;99802.63;1640234;87;25717;-59
2022/05/18 08:28:35;;;;;;;2.17;1.10;;;;;;;19.49;27.18;99799.05;1640081;86;25748;-59
2022/05/18 08:31:02;;;;;;;2.08;0.80;;;;;;;19.46;25.82;99804.73;1639751;86;27831;-59
2022/05/18 08:33:31;;;;;;;3.00;1.20;;;;;;;19.24;23.64;99811.51;1640307;86;25673;-58
2022/05/18 08:35:56;;;;;;;2.58;1.12;;;;;;;18.99;25.41;99815.58;1639682;87;26111;-58
2022/05/18 08:38:23;;;;;;;4.00;1.20;;;;;;;18.77;26.26;99816.22;1639759;86;25836;-58
2022/05/18 08:41:16;;;;;;;3.40;1.00;;;;;;;18.55;26.18;99816.81;1640226;86;25719;-59
2022/05/18 08:43:54;;;;;;;3.05;1.10;;;;;;;18.66;25.93;99813.05;1637142;87;25810;-59
2022/05/18 08:47:07;;;;;;;6.00;1.50;;;;;;;18.85;26.22;99809.75;1639551;87;25697;-58
2022/05/18 08:50:00;;;;;;;3.62;1.12;;;;;;;19.47;27.27;99811.90;1640154;86;27454;-57
2022/05/18 08:52:41;;;;;;;1.77;1.07;;;;;;;20.25;25.38;99808.40;1640120;86;25506;-58
2022/05/18 08:55:35;;;;;;;2.75;0.80;;;;;;;19.95;23.34;99807.27;1640263;86;25533;-58
2022/05/18 08:58:01;;;;;;;1.52;0.80;;;;;;;20.13;25.33;99809.24;1639653;87;25620;-59
2022/05/18 09:00:39;;;;;;;4.95;1.02;;;;;;;20.97;23.67;99804.67;1639974;86;25647;-59
2022/05/18 09:03:15;;;;;;;2.72;1.20;;;;;;;21.47;23.01;99807.73;1640191;87;27426;-58
2022/05/18 09:06:01;;;;;;;3.50;0.90;;;;;;;22.09;22.01;99803.61;1640119;87;25514;-59
2022/05/18 09:08:35;;;;;;;2.10;1.05;;;;;;;22.02;21.77;99794.52;1640116;86;25714;-58
2022/05/18 09:11:06;;;;;;;2.52;1.27;;;;;;;20.87;21.69;99800.98;1640299;87;26311;-58
2022/05/18 09:13:33;;;;;;;4.12;0.95;;;;;;;20.80;23.55;99796.02;1640287;87;25487;-59
2022/05/18 09:16:26;;;;;;;4.92;1.27;;;;;;;20.75;21.94;99799.08;1640055;87;27481;-58
2022/05/18 09:19:15;;;;;;;3.77;1.07;;;;;;;20.87;22.00;99800.38;1639900;86;25444;-58
2022/05/18 09:21:56;;;;;;;2.55;1.15;;;;;;;21.06;22.43;99805.32;1640027;86;25487;-58
2022/05/18 09:24:31;;;;;;;1.98;0.88;;;;;;;21.61;22.50;99798.31;1639813;87;25910;-63
2022/05/18 09:27:28;;;;;;;2.05;0.90;;;;;;;21.28;21.16;99800.89;1639730;87;25534;-61
2022/05/18 09:30:15;;;;;;;2.65;1.12;;;;;;;21.47;21.59;99800.16;1646467;86;29551;-57
2022/05/18 09:33:12;;;;;;;6.10;1.17;;;;;;;21.31;20.71;99798.20;1658353;86;25635;-61
2022/05/18 09:36:03;;;;;;;2.12;1.00;;;;;;;21.23;21.47;99799.18;1658441;86;25484;-62
2022/05/18 09:38:57;;;;;;;2.50;1.00;;;;;;;21.15;21.29;99801.54;1658724;86;25740;-60
2022/05/18 09:41:29;;;;;;;1.95;1.00;;;;;;;20.81;22.07;99787.87;1658595;86;25780;-62
2022/05/18 09:44:06;;;;;;;2.22;0.72;;;;;;;20.63;21.07;99793.77;1658638;86;27444;-62
2022/05/18 09:46:32;;;;;;;2.72;1.12;;;;;;;20.97;22.05;99788.53;1658323;86;25841;-60
2022/05/18 09:49:18;;;;;;;2.20;0.90;;;;;;;21.05;22.88;99788.39;1658745;86;25635;-63
2022/05/18 09:51:46;;;;;;;3.67;0.95;;;;;;;21.06;21.44;99789.17;1658803;86;26495;-62
2022/05/18 09:54:13;;;;;;;3.33;0.93;;;;;;;20.92;21.96;99789.02;1658411;86;25493;-62
2022/05/18 09:56:56;;;;;;;2.02;0.85;;;;;;;21.22;21.20;99790.60;1658814;86;27628;-62
2022/05/18 09:59:28;;;;;;;1.77;0.80;;;;;;;21.08;21.22;99798.57;1657852;86;25485;-62
2022/05/18 10:07:34;;;;;;;2.85;0.75;;;;;;;20.96;21.17;99791.09;1658668;86;25592;-62
2022/05/18 10:10:06;;;;;;;3.80;0.98;;;;;;;20.83;21.24;99797.27;1658681;86;27576;-63
2022/05/18 10:12:43;;;;;;;1.50;0.78;;;;;;;21.15;21.07;99792.61;1657995;86;25699;-63
2022/05/18 10:15:31;;;;;;;1.20;0.70;;;;;;;21.55;21.10;99795.00;1658507;86;36108;-63
2022/05/18 10:18:03;;;;;;;3.08;0.80;;;;;;;21.86;19.81;99788.37;1658621;86;25761;-63
2022/05/18 10:20:34;;;;;;;0.90;0.70;;;;;;;22.12;20.79;99793.12;1657692;86;25488;-63
2022/05/18 10:23:02;;;;;;;1.52;0.80;;;;;;;22.50;19.56;99786.53;1658637;86;28326;-62
2022/05/18 10:25:49;;;;;;;2.33;1.25;;;;;;;22.65;19.95;99783.48;1658445;86;25612;-62
2022/05/18 10:28:23;;;;;;;1.60;0.80;;;;;;;23.24;20.40;99781.14;1657477;86;25587;-62
2022/05/18 10:31:04;;;;;;;1.20;0.80;;;;;;;23.43;18.95;99783.90;1658419;86;26474;-62
2022/05/18 10:33:39;;;;;;;1.98;1.00;;;;;;;24.03;18.80;99777.98;1658638;86;25729;-59
2022/05/18 10:36:16;;;;;;;2.05;1.05;;;;;;;24.46;19.18;99774.97;1658276;86;27433;-59
2022/05/18 10:38:50;;;;;;;2.85;0.93;;;;;;;24.62;19.21;99776.76;1658750;86;25522;-58
2022/05/18 10:41:24;;;;;;;2.98;0.78;;;;;;;24.48;18.04;99778.20;1658195;86;25635;-59
2022/05/18 10:44:16;;;;;;;1.37;0.70;;;;;;;24.47;18.08;99782.79;1657947;86;25640;-62
2022/05/18 10:46:49;;;;;;;1.07;0.70;;;;;;;24.76;17.97;99781.14;1658415;86;25696;-57
2022/05/18 10:49:34;;;;;;;1.90;0.72;;;;;;;25.28;18.01;99774.86;1658813;86;28192;-60
2022/05/18 10:52:21;;;;;;;1.22;0.95;;;;;;;24.87;18.10;99777.64;1658674;86;25804;-60
2022/05/18 10:54:58;;;;;;;3.33;0.82;;;;;;;24.55;18.06;99776.88;1655351;86;25646;-62
2022/05/18 10:57:41;;;;;;;4.17;1.45;;;;;;;24.01;18.99;99774.16;1658617;86;25813;-59
2022/05/18 11:00:18;;;;;;;2.80;0.95;;;;;;;24.06;19.39;99773.84;1658753;86;25676;-60
2022/05/18 11:02:50;;;;;;;1.17;0.82;;;;;;;24.54;18.58;99775.86;1658444;86;28676;-60
2022/05/18 11:05:41;;;;;;;4.55;1.40;;;;;;;24.69;18.99;99776.25;1658363;85;25655;-58
2022/05/18 11:08:14;;;;;;;1.65;0.78;;;;;;;25.24;18.84;99772.59;1658538;86;25629;-57
2022/05/18 11:11:11;;;;;;;3.40;0.85;;;;;;;25.45;18.45;99773.98;1658302;86;25904;-58
2022/05/18 11:13:54;;;;;;;3.17;1.00;;;;;;;25.60;17.95;99767.91;1657974;86;25423;-58
2022/05/18 11:16:51;;;;;;;1.22;0.88;;;;;;;24.82;17.95;99766.17;1658372;86;29438;-58
2022/05/18 11:19:53;;;;;;;2.52;0.90;;;;;;;24.75;19.15;99768.91;1658119;86;27166;-59
2022/05/18 11:22:34;;;;;;;3.75;0.80;;;;;;;25.13;19.75;99755.67;1584867;90;25839;-59
2022/05/18 11:25:50;;;;;;;2.00;0.90;;;;;;;25.93;19.65;99756.28;1580325;90;26492;-59
2022/05/18 11:28:50;;;;;;;1.77;0.82;;;;;;;26.45;18.99;99757.95;1585240;89;25564;-59
2022/05/18 11:31:37;;;;;;;1.52;0.70;;;;;;;27.04;17.89;99755.50;1601201;88;27439;-58
2022/05/18 11:34:26;;;;;;;1.70;0.93;;;;;;;27.50;18.01;99758.72;1607852;89;27190;-58
2022/05/18 11:37:17;;;;;;;1.42;1.00;;;;;;;27.66;17.83;99756.93;1609199;89;25721;-58
2022/05/18 11:40:18;;;;;;;2.87;1.37;;;;;;;28.23;17.44;99751.55;1609652;89;25969;-59
2022/05/18 11:42:58;;;;;;;1.52;0.88;;;;;;;28.30;17.23;99745.90;1553106;92;25761;-59
2022/05/18 11:45:47;;;;;;;2.75;0.90;;;;;;;28.07;16.59;99747.17;1552658;92;27450;-59
2022/05/18 11:48:41;;;;;;;2.35;0.75;;;;;;;27.74;17.10;99752.06;1552386;92;25868;-59
2022/05/18 11:51:35;;;;;;;2.00;0.85;;;;;;;27.72;17.16;99748.27;1552899;92;25715;-58
2022/05/18 11:54:57;;;;;;;3.00;0.95;;;;;;;27.55;16.71;99747.06;1552726;92;26641;-59
2022/05/18 11:57:49;;;;;;;1.77;0.90;;;;;;;26.17;17.37;99738.53;1553059;92;25809;-59
2022/05/18 12:03:51;;;;;;;1.37;1.10;;;;;;;26.53;17.70;99742.71;1574627;91;25550;-58
2022/05/18 12:07:04;;;;;;;3.58;0.90;;;;;;;26.76;17.07;99744.38;1574414;90;25784;-60
2022/05/18 12:09:59;;;;;;;1.82;0.90;;;;;;;26.67;17.47;99742.77;1574524;90;25834;-62
2022/05/18 12:12:48;;;;;;;1.22;0.82;;;;;;;27.08;17.10;99742.86;1574438;91;25694;-58
2022/05/18 12:15:29;;;;;;;3.42;1.10;;;;;;;27.30;16.84;99738.02;1574742;91;27518;-59
2022/05/18 12:18:04;;;;;;;1.32;0.72;;;;;;;27.73;17.12;99740.02;1586626;86;25563;-58
2022/05/18 12:21:09;;;;;;;2.90;0.80;;;;;;;27.55;16.16;99742.22;1663797;86;25518;-63